sensor_id;sensor_type;location;lat;lon;timestamp;P1;durP1;ratioP1;P2;durP2;ratioP2
43696;SDS011;29301;47.620;19.560;2023-04-01T00:01:25;0.70;;;0.50;;
43696;SDS011;29301;47.620;19.560;2023-04-01T00:03:52;0.70;;;0.40;;
43696;SDS011;29301;47.620;19.560;2023-04-01T00:06:19;0.70;;;0.50;;
43696;SDS011;29301;47.620;19.560;2023-04-01T00:08:45;0.70;;;0.50;;
43696;SDS011;29301;47.620;19.560;2023-04-01T00:11:11;0.80;;;0.50;;
43696;SDS011;29301;47.620;19.560;2023-04-01T00:13:37;0.70;;;0.50;;
43696;SDS011;29301;47.620;19.560;2023-04-01T00:16:02;0.80;;;0.50;;
43696;SDS011;29301;47.620;19.560;2023-04-01T00:18:29;0.70;;;0.55;;
43696;SDS011;29301;47.620;19.560;2023-04-01T00:20:55;0.70;;;0.60;;
43696;SDS011;29301;47.620;19.560;2023-04-01T00:23:21;0.80;;;0.60;;
43696;SDS011;29301;47.620;19.560;2023-04-01T00:25:47;0.80;;;0.60;;
43696;SDS011;29301;47.620;19.560;2023-04-01T00:28:14;0.90;;;0.60;;
43696;SDS011;29301;47.620;19.560;2023-04-01T00:30:43;0.85;;;0.60;;
43696;SDS011;29301;47.620;19.560;2023-04-01T00:33:09;0.85;;;0.60;;
43696;SDS011;29301;47.620;19.560;2023-04-01T00:35:35;0.90;;;0.60;;
43696;SDS011;29301;47.620;19.560;2023-04-01T00:38:01;0.98;;;0.70;;
43696;SDS011;29301;47.620;19.560;2023-04-01T00:40:29;0.98;;;0.70;;
43696;SDS011;29301;47.620;19.560;2023-04-01T00:42:57;1.02;;;0.70;;
43696;SDS011;29301;47.620;19.560;2023-04-01T00:47:54;0.80;;;0.60;;
43696;SDS011;29301;47.620;19.560;2023-04-01T00:50:22;1.00;;;0.70;;
43696;SDS011;29301;47.620;19.560;2023-04-01T00:52:49;1.05;;;0.70;;
43696;SDS011;29301;47.620;19.560;2023-04-01T00:55:15;0.90;;;0.60;;
43696;SDS011;29301;47.620;19.560;2023-04-01T00:57:44;0.80;;;0.60;;
43696;SDS011;29301;47.620;19.560;2023-04-01T01:00:12;0.90;;;0.68;;
43696;SDS011;29301;47.620;19.560;2023-04-01T01:02:41;1.02;;;0.70;;
43696;SDS011;29301;47.620;19.560;2023-04-01T01:05:07;0.90;;;0.70;;
43696;SDS011;29301;47.620;19.560;2023-04-01T01:07:53;0.90;;;0.60;;
43696;SDS011;29301;47.620;19.560;2023-04-01T01:10:33;0.85;;;0.60;;
43696;SDS011;29301;47.620;19.560;2023-04-01T01:15:44;0.80;;;0.60;;
43696;SDS011;29301;47.620;19.560;2023-04-01T01:27:09;0.80;;;0.60;;
43696;SDS011;29301;47.620;19.560;2023-04-01T01:37:59;0.80;;;0.60;;
43696;SDS011;29301;47.620;19.560;2023-04-01T01:40:31;0.80;;;0.60;;
43696;SDS011;29301;47.620;19.560;2023-04-01T01:43:00;0.80;;;0.60;;
43696;SDS011;29301;47.620;19.560;2023-04-01T01:45:29;0.80;;;0.60;;
43696;SDS011;29301;47.620;19.560;2023-04-01T01:47:56;0.80;;;0.50;;
43696;SDS011;29301;47.620;19.560;2023-04-01T01:50:25;0.80;;;0.60;;
43696;SDS011;29301;47.620;19.560;2023-04-01T01:53:00;0.80;;;0.60;;
43696;SDS011;29301;47.620;19.560;2023-04-01T01:57:55;0.70;;;0.60;;
43696;SDS011;29301;47.620;19.560;2023-04-01T02:00:25;0.80;;;0.60;;
43696;SDS011;29301;47.620;19.560;2023-04-01T02:02:52;0.80;;;0.60;;
43696;SDS011;29301;47.620;19.560;2023-04-01T02:05:23;0.80;;;0.60;;
43696;SDS011;29301;47.620;19.560;2023-04-01T02:07:59;0.80;;;0.60;;
43696;SDS011;29301;47.620;19.560;2023-04-01T02:10:33;0.80;;;0.60;;
43696;SDS011;29301;47.620;19.560;2023-04-01T02:13:02;0.80;;;0.60;;
43696;SDS011;29301;47.620;19.560;2023-04-01T02:15:33;0.80;;;0.60;;
43696;SDS011;29301;47.620;19.560;2023-04-01T02:18:02;0.80;;;0.60;;
43696;SDS011;29301;47.620;19.560;2023-04-01T02:20:29;0.70;;;0.60;;
43696;SDS011;29301;47.620;19.560;2023-04-01T02:22:56;0.85;;;0.60;;
43696;SDS011;29301;47.620;19.560;2023-04-01T02:25:28;0.80;;;0.60;;
43696;SDS011;29301;47.620;19.560;2023-04-01T02:27:58;0.80;;;0.60;;
43696;SDS011;29301;47.620;19.560;2023-04-01T02:30:27;0.80;;;0.60;;
43696;SDS011;29301;47.620;19.560;2023-04-01T02:32:56;0.73;;;0.60;;
43696;SDS011;29301;47.620;19.560;2023-04-01T02:35:23;0.80;;;0.60;;
43696;SDS011;29301;47.620;19.560;2023-04-01T02:37:50;0.80;;;0.60;;
43696;SDS011;29301;47.620;19.560;2023-04-01T02:40:19;0.80;;;0.52;;
43696;SDS011;29301;47.620;19.560;2023-04-01T02:42:45;0.70;;;0.55;;
43696;SDS011;29301;47.620;19.560;2023-04-01T02:45:11;0.70;;;0.50;;
43696;SDS011;29301;47.620;19.560;2023-04-01T02:47:37;0.80;;;0.60;;
43696;SDS011;29301;47.620;19.560;2023-04-01T02:50:03;0.80;;;0.60;;
43696;SDS011;29301;47.620;19.560;2023-04-01T02:52:30;0.70;;;0.50;;
43696;SDS011;29301;47.620;19.560;2023-04-01T02:54:56;0.80;;;0.50;;
43696;SDS011;29301;47.620;19.560;2023-04-01T02:57:23;0.70;;;0.50;;
43696;SDS011;29301;47.620;19.560;2023-04-01T02:59:49;0.80;;;0.50;;
43696;SDS011;29301;47.620;19.560;2023-04-01T03:02:15;0.80;;;0.50;;
43696;SDS011;29301;47.620;19.560;2023-04-01T03:04:41;0.80;;;0.57;;
43696;SDS011;29301;47.620;19.560;2023-04-01T03:07:07;0.80;;;0.50;;
43696;SDS011;29301;47.620;19.560;2023-04-01T03:09:35;0.70;;;0.50;;
43696;SDS011;29301;47.620;19.560;2023-04-01T03:12:01;0.70;;;0.50;;
43696;SDS011;29301;47.620;19.560;2023-04-01T03:14:27;0.70;;;0.50;;
43696;SDS011;29301;47.620;19.560;2023-04-01T03:16:53;0.70;;;0.50;;
43696;SDS011;29301;47.620;19.560;2023-04-01T03:19:19;0.70;;;0.50;;
43696;SDS011;29301;47.620;19.560;2023-04-01T03:21:45;0.80;;;0.50;;
43696;SDS011;29301;47.620;19.560;2023-04-01T03:24:11;0.80;;;0.60;;
43696;SDS011;29301;47.620;19.560;2023-04-01T03:26:36;0.70;;;0.50;;
43696;SDS011;29301;47.620;19.560;2023-04-01T03:29:02;0.70;;;0.60;;
43696;SDS011;29301;47.620;19.560;2023-04-01T03:31:28;0.80;;;0.60;;
43696;SDS011;29301;47.620;19.560;2023-04-01T03:33:54;0.80;;;0.60;;
43696;SDS011;29301;47.620;19.560;2023-04-01T03:36:20;0.70;;;0.50;;
43696;SDS011;29301;47.620;19.560;2023-04-01T03:38:46;0.80;;;0.60;;
43696;SDS011;29301;47.620;19.560;2023-04-01T03:41:12;0.80;;;0.60;;
43696;SDS011;29301;47.620;19.560;2023-04-01T03:43:40;0.80;;;0.60;;
43696;SDS011;29301;47.620;19.560;2023-04-01T03:46:06;0.80;;;0.60;;
43696;SDS011;29301;47.620;19.560;2023-04-01T03:48:32;0.80;;;0.60;;
43696;SDS011;29301;47.620;19.560;2023-04-01T03:50:57;0.82;;;0.60;;
43696;SDS011;29301;47.620;19.560;2023-04-01T03:53:23;0.80;;;0.60;;
43696;SDS011;29301;47.620;19.560;2023-04-01T03:55:49;0.70;;;0.60;;
43696;SDS011;29301;47.620;19.560;2023-04-01T03:58:16;0.80;;;0.60;;
43696;SDS011;29301;47.620;19.560;2023-04-01T04:00:42;0.80;;;0.60;;
43696;SDS011;29301;47.620;19.560;2023-04-01T04:03:08;0.80;;;0.60;;
43696;SDS011;29301;47.620;19.560;2023-04-01T04:05:34;0.80;;;0.60;;
43696;SDS011;29301;47.620;19.560;2023-04-01T04:08:00;0.80;;;0.60;;
43696;SDS011;29301;47.620;19.560;2023-04-01T04:10:26;0.80;;;0.50;;
43696;SDS011;29301;47.620;19.560;2023-04-01T04:12:52;0.80;;;0.60;;
43696;SDS011;29301;47.620;19.560;2023-04-01T04:15:18;0.80;;;0.55;;
43696;SDS011;29301;47.620;19.560;2023-04-01T04:17:44;0.80;;;0.52;;
43696;SDS011;29301;47.620;19.560;2023-04-01T04:20:10;0.80;;;0.50;;
43696;SDS011;29301;47.620;19.560;2023-04-01T04:22:36;0.70;;;0.50;;
43696;SDS011;29301;47.620;19.560;2023-04-01T04:25:02;0.80;;;0.50;;
43696;SDS011;29301;47.620;19.560;2023-04-01T04:27:28;0.70;;;0.50;;
43696;SDS011;29301;47.620;19.560;2023-04-01T04:29:53;0.80;;;0.60;;
43696;SDS011;29301;47.620;19.560;2023-04-01T04:32:19;0.80;;;0.60;;
43696;SDS011;29301;47.620;19.560;2023-04-01T04:34:45;0.70;;;0.50;;
43696;SDS011;29301;47.620;19.560;2023-04-01T04:37:10;0.80;;;0.60;;
43696;SDS011;29301;47.620;19.560;2023-04-01T04:39:36;0.70;;;0.50;;
43696;SDS011;29301;47.620;19.560;2023-04-01T04:42:02;0.80;;;0.50;;
43696;SDS011;29301;47.620;19.560;2023-04-01T04:44:28;0.80;;;0.50;;
43696;SDS011;29301;47.620;19.560;2023-04-01T04:46:53;0.80;;;0.57;;
43696;SDS011;29301;47.620;19.560;2023-04-01T04:49:19;0.70;;;0.50;;
43696;SDS011;29301;47.620;19.560;2023-04-01T04:51:45;0.70;;;0.50;;
43696;SDS011;29301;47.620;19.560;2023-04-01T04:54:11;0.70;;;0.50;;
43696;SDS011;29301;47.620;19.560;2023-04-01T04:56:36;0.70;;;0.50;;
43696;SDS011;29301;47.620;19.560;2023-04-01T04:59:02;0.70;;;0.60;;
43696;SDS011;29301;47.620;19.560;2023-04-01T05:01:28;0.70;;;0.50;;
43696;SDS011;29301;47.620;19.560;2023-04-01T05:03:54;0.80;;;0.50;;
43696;SDS011;29301;47.620;19.560;2023-04-01T05:06:19;0.70;;;0.50;;
43696;SDS011;29301;47.620;19.560;2023-04-01T05:08:45;0.80;;;0.60;;
43696;SDS011;29301;47.620;19.560;2023-04-01T05:11:13;0.80;;;0.60;;
43696;SDS011;29301;47.620;19.560;2023-04-01T05:13:41;0.70;;;0.50;;
43696;SDS011;29301;47.620;19.560;2023-04-01T05:16:08;0.80;;;0.60;;
43696;SDS011;29301;47.620;19.560;2023-04-01T05:18:35;0.85;;;0.60;;
43696;SDS011;29301;47.620;19.560;2023-04-01T05:21:01;0.80;;;0.60;;
43696;SDS011;29301;47.620;19.560;2023-04-01T05:23:26;0.70;;;0.60;;
43696;SDS011;29301;47.620;19.560;2023-04-01T05:25:52;0.80;;;0.60;;
43696;SDS011;29301;47.620;19.560;2023-04-01T05:28:18;0.70;;;0.50;;
43696;SDS011;29301;47.620;19.560;2023-04-01T05:30:45;0.70;;;0.60;;
43696;SDS011;29301;47.620;19.560;2023-04-01T05:33:11;0.80;;;0.60;;
43696;SDS011;29301;47.620;19.560;2023-04-01T05:35:38;0.80;;;0.60;;
43696;SDS011;29301;47.620;19.560;2023-04-01T05:38:05;0.80;;;0.60;;
43696;SDS011;29301;47.620;19.560;2023-04-01T05:40:31;0.70;;;0.60;;
43696;SDS011;29301;47.620;19.560;2023-04-01T05:42:57;0.70;;;0.60;;
43696;SDS011;29301;47.620;19.560;2023-04-01T05:45:23;0.70;;;0.50;;
43696;SDS011;29301;47.620;19.560;2023-04-01T05:47:49;0.80;;;0.50;;
43696;SDS011;29301;47.620;19.560;2023-04-01T05:50:14;0.70;;;0.50;;
43696;SDS011;29301;47.620;19.560;2023-04-01T05:52:40;0.70;;;0.50;;
43696;SDS011;29301;47.620;19.560;2023-04-01T05:55:06;0.70;;;0.50;;
43696;SDS011;29301;47.620;19.560;2023-04-01T05:57:32;0.70;;;0.50;;
43696;SDS011;29301;47.620;19.560;2023-04-01T05:59:58;0.70;;;0.50;;
43696;SDS011;29301;47.620;19.560;2023-04-01T06:02:24;0.80;;;0.55;;
43696;SDS011;29301;47.620;19.560;2023-04-01T06:04:49;0.80;;;0.50;;
43696;SDS011;29301;47.620;19.560;2023-04-01T06:07:25;0.80;;;0.60;;
43696;SDS011;29301;47.620;19.560;2023-04-01T06:09:53;0.80;;;0.57;;
43696;SDS011;29301;47.620;19.560;2023-04-01T06:12:32;0.70;;;0.50;;
43696;SDS011;29301;47.620;19.560;2023-04-01T06:25:48;0.70;;;0.50;;
43696;SDS011;29301;47.620;19.560;2023-04-01T06:31:26;0.70;;;0.50;;
43696;SDS011;29301;47.620;19.560;2023-04-01T06:34:17;0.80;;;0.60;;
43696;SDS011;29301;47.620;19.560;2023-04-01T06:36:53;0.70;;;0.50;;
43696;SDS011;29301;47.620;19.560;2023-04-01T06:42:09;0.70;;;0.50;;
43696;SDS011;29301;47.620;19.560;2023-04-01T06:44:51;0.80;;;0.60;;
43696;SDS011;29301;47.620;19.560;2023-04-01T06:50:19;0.70;;;0.50;;
43696;SDS011;29301;47.620;19.560;2023-04-01T06:58:22;0.70;;;0.50;;
43696;SDS011;29301;47.620;19.560;2023-04-01T07:00:54;0.70;;;0.50;;
43696;SDS011;29301;47.620;19.560;2023-04-01T07:03:29;0.80;;;0.50;;
43696;SDS011;29301;47.620;19.560;2023-04-01T07:05:58;0.80;;;0.50;;
43696;SDS011;29301;47.620;19.560;2023-04-01T07:08:30;0.70;;;0.50;;
43696;SDS011;29301;47.620;19.560;2023-04-01T07:11:05;0.70;;;0.50;;
43696;SDS011;29301;47.620;19.560;2023-04-01T07:13:44;0.80;;;0.50;;
43696;SDS011;29301;47.620;19.560;2023-04-01T07:18:54;0.70;;;0.50;;
43696;SDS011;29301;47.620;19.560;2023-04-01T07:24:17;0.70;;;0.50;;
43696;SDS011;29301;47.620;19.560;2023-04-01T07:26:55;0.70;;;0.50;;
43696;SDS011;29301;47.620;19.560;2023-04-01T07:29:22;0.70;;;0.50;;
43696;SDS011;29301;47.620;19.560;2023-04-01T07:34:36;0.70;;;0.50;;
43696;SDS011;29301;47.620;19.560;2023-04-01T07:40:26;0.70;;;0.50;;
43696;SDS011;29301;47.620;19.560;2023-04-01T07:52:00;0.70;;;0.50;;
43696;SDS011;29301;47.620;19.560;2023-04-01T07:54:49;0.70;;;0.50;;
43696;SDS011;29301;47.620;19.560;2023-04-01T07:57:29;0.60;;;0.40;;
43696;SDS011;29301;47.620;19.560;2023-04-01T08:02:45;0.70;;;0.40;;
43696;SDS011;29301;47.620;19.560;2023-04-01T08:16:08;0.60;;;0.40;;
43696;SDS011;29301;47.620;19.560;2023-04-01T08:21:28;0.60;;;0.40;;
43696;SDS011;29301;47.620;19.560;2023-04-01T08:24:20;0.57;;;0.40;;
43696;SDS011;29301;47.620;19.560;2023-04-01T08:29:36;0.50;;;0.40;;
43696;SDS011;29301;47.620;19.560;2023-04-01T08:32:11;0.40;;;0.40;;
43696;SDS011;29301;47.620;19.560;2023-04-01T08:34:42;0.65;;;0.45;;
43696;SDS011;29301;47.620;19.560;2023-04-01T08:37:13;0.50;;;0.40;;
43696;SDS011;29301;47.620;19.560;2023-04-01T08:39:47;0.50;;;0.40;;
43696;SDS011;29301;47.620;19.560;2023-04-01T08:45:39;0.40;;;0.40;;
43696;SDS011;29301;47.620;19.560;2023-04-01T09:01:54;0.57;;;0.40;;
43696;SDS011;29301;47.620;19.560;2023-04-01T09:10:15;0.40;;;0.38;;
43696;SDS011;29301;47.620;19.560;2023-04-01T09:33:07;0.47;;;0.40;;
43696;SDS011;29301;47.620;19.560;2023-04-01T09:39:11;0.50;;;0.40;;
43696;SDS011;29301;47.620;19.560;2023-04-01T09:44:25;0.50;;;0.40;;
43696;SDS011;29301;47.620;19.560;2023-04-01T09:52:22;0.40;;;0.40;;
43696;SDS011;29301;47.620;19.560;2023-04-01T10:03:24;0.40;;;0.30;;
43696;SDS011;29301;47.620;19.560;2023-04-01T10:17:36;0.40;;;0.30;;
43696;SDS011;29301;47.620;19.560;2023-04-01T10:20:19;0.50;;;0.40;;
43696;SDS011;29301;47.620;19.560;2023-04-01T10:36:47;0.40;;;0.30;;
43696;SDS011;29301;47.620;19.560;2023-04-01T10:42:53;0.40;;;0.30;;
43696;SDS011;29301;47.620;19.560;2023-04-01T10:45:37;0.47;;;0.40;;
43696;SDS011;29301;47.620;19.560;2023-04-01T10:53:46;0.60;;;0.40;;
43696;SDS011;29301;47.620;19.560;2023-04-01T10:56:34;0.47;;;0.40;;
43696;SDS011;29301;47.620;19.560;2023-04-01T11:18:02;0.47;;;0.40;;
43696;SDS011;29301;47.620;19.560;2023-04-01T11:23:48;0.40;;;0.30;;
43696;SDS011;29301;47.620;19.560;2023-04-01T11:56:17;0.40;;;0.30;;
43696;SDS011;29301;47.620;19.560;2023-04-01T11:59:26;0.40;;;0.30;;
43696;SDS011;29301;47.620;19.560;2023-04-01T12:18:59;0.30;;;0.30;;
43696;SDS011;29301;47.620;19.560;2023-04-01T12:21:59;0.40;;;0.30;;
43696;SDS011;29301;47.620;19.560;2023-04-01T12:51:56;0.32;;;0.30;;
43696;SDS011;29301;47.620;19.560;2023-04-01T13:05:27;0.40;;;0.30;;
43696;SDS011;29301;47.620;19.560;2023-04-01T13:13:44;0.40;;;0.30;;
43696;SDS011;29301;47.620;19.560;2023-04-01T13:18:54;0.40;;;0.30;;
43696;SDS011;29301;47.620;19.560;2023-04-01T13:30:09;0.40;;;0.30;;
43696;SDS011;29301;47.620;19.560;2023-04-01T14:00:03;0.30;;;0.30;;
43696;SDS011;29301;47.620;19.560;2023-04-01T14:08:29;0.52;;;0.40;;
43696;SDS011;29301;47.620;19.560;2023-04-01T14:16:14;0.40;;;0.30;;
43696;SDS011;29301;47.620;19.560;2023-04-01T14:24:53;0.40;;;0.30;;
43696;SDS011;29301;47.620;19.560;2023-04-01T14:30:23;0.40;;;0.40;;
43696;SDS011;29301;47.620;19.560;2023-04-01T14:33:15;0.40;;;0.30;;
43696;SDS011;29301;47.620;19.560;2023-04-01T14:41:46;0.30;;;0.30;;
43696;SDS011;29301;47.620;19.560;2023-04-01T14:49:41;0.40;;;0.30;;
43696;SDS011;29301;47.620;19.560;2023-04-01T14:52:21;0.30;;;0.30;;
43696;SDS011;29301;47.620;19.560;2023-04-01T14:55:00;0.40;;;0.30;;
43696;SDS011;29301;47.620;19.560;2023-04-01T14:57:36;0.40;;;0.30;;
43696;SDS011;29301;47.620;19.560;2023-04-01T15:00:15;0.50;;;0.40;;
43696;SDS011;29301;47.620;19.560;2023-04-01T15:08:03;0.40;;;0.40;;
43696;SDS011;29301;47.620;19.560;2023-04-01T15:21:46;0.40;;;0.40;;
43696;SDS011;29301;47.620;19.560;2023-04-01T15:24:46;0.40;;;0.30;;
43696;SDS011;29301;47.620;19.560;2023-04-01T15:32:56;0.50;;;0.40;;
43696;SDS011;29301;47.620;19.560;2023-04-01T15:36:12;0.40;;;0.30;;
43696;SDS011;29301;47.620;19.560;2023-04-01T15:38:49;0.40;;;0.30;;
43696;SDS011;29301;47.620;19.560;2023-04-01T15:41:27;0.40;;;0.40;;
43696;SDS011;29301;47.620;19.560;2023-04-01T15:47:38;0.40;;;0.38;;
43696;SDS011;29301;47.620;19.560;2023-04-01T15:55:31;0.50;;;0.40;;
43696;SDS011;29301;47.620;19.560;2023-04-01T16:01:27;0.50;;;0.40;;
43696;SDS011;29301;47.620;19.560;2023-04-01T16:04:28;0.50;;;0.40;;
43696;SDS011;29301;47.620;19.560;2023-04-01T16:14:59;0.40;;;0.40;;
43696;SDS011;29301;47.620;19.560;2023-04-01T16:20:40;0.50;;;0.40;;
43696;SDS011;29301;47.620;19.560;2023-04-01T16:23:29;0.40;;;0.30;;
43696;SDS011;29301;47.620;19.560;2023-04-01T16:26:18;0.40;;;0.38;;
43696;SDS011;29301;47.620;19.560;2023-04-01T16:34:14;0.50;;;0.40;;
43696;SDS011;29301;47.620;19.560;2023-04-01T16:37:00;0.40;;;0.40;;
43696;SDS011;29301;47.620;19.560;2023-04-01T16:47:35;0.60;;;0.40;;
43696;SDS011;29301;47.620;19.560;2023-04-01T16:50:19;0.50;;;0.40;;
43696;SDS011;29301;47.620;19.560;2023-04-01T16:58:48;0.50;;;0.40;;
43696;SDS011;29301;47.620;19.560;2023-04-01T17:04:12;0.50;;;0.40;;
43696;SDS011;29301;47.620;19.560;2023-04-01T17:12:24;0.50;;;0.40;;
43696;SDS011;29301;47.620;19.560;2023-04-01T17:15:22;0.50;;;0.40;;
43696;SDS011;29301;47.620;19.560;2023-04-01T17:21:00;0.60;;;0.40;;
43696;SDS011;29301;47.620;19.560;2023-04-01T17:23:37;0.40;;;0.30;;
43696;SDS011;29301;47.620;19.560;2023-04-01T17:42:24;0.68;;;0.40;;
43696;SDS011;29301;47.620;19.560;2023-04-01T17:50:27;0.52;;;0.40;;
43696;SDS011;29301;47.620;19.560;2023-04-01T17:53:12;0.60;;;0.40;;
43696;SDS011;29301;47.620;19.560;2023-04-01T17:58:46;0.60;;;0.40;;
43696;SDS011;29301;47.620;19.560;2023-04-01T18:01:21;0.60;;;0.40;;
43696;SDS011;29301;47.620;19.560;2023-04-01T18:07:03;0.70;;;0.40;;
43696;SDS011;29301;47.620;19.560;2023-04-01T18:15:28;0.70;;;0.40;;
43696;SDS011;29301;47.620;19.560;2023-04-01T18:25:51;0.70;;;0.50;;
43696;SDS011;29301;47.620;19.560;2023-04-01T18:28:32;0.70;;;0.50;;
43696;SDS011;29301;47.620;19.560;2023-04-01T18:39:35;0.70;;;0.47;;
43696;SDS011;29301;47.620;19.560;2023-04-01T18:42:16;0.70;;;0.40;;
43696;SDS011;29301;47.620;19.560;2023-04-01T18:45:35;0.60;;;0.40;;
43696;SDS011;29301;47.620;19.560;2023-04-01T18:50:38;0.70;;;0.50;;
43696;SDS011;29301;47.620;19.560;2023-04-01T18:55:51;0.70;;;0.45;;
43696;SDS011;29301;47.620;19.560;2023-04-01T19:06:26;0.70;;;0.40;;
43696;SDS011;29301;47.620;19.560;2023-04-01T19:09:19;0.70;;;0.40;;
43696;SDS011;29301;47.620;19.560;2023-04-01T19:12:03;0.70;;;0.50;;
43696;SDS011;29301;47.620;19.560;2023-04-01T19:20:14;0.70;;;0.50;;
43696;SDS011;29301;47.620;19.560;2023-04-01T19:33:22;0.70;;;0.40;;
43696;SDS011;29301;47.620;19.560;2023-04-01T19:51:12;0.70;;;0.50;;
43696;SDS011;29301;47.620;19.560;2023-04-01T19:53:53;0.70;;;0.50;;
43696;SDS011;29301;47.620;19.560;2023-04-01T19:56:32;0.70;;;0.50;;
43696;SDS011;29301;47.620;19.560;2023-04-01T19:59:34;0.70;;;0.47;;
43696;SDS011;29301;47.620;19.560;2023-04-01T20:07:55;0.70;;;0.50;;
43696;SDS011;29301;47.620;19.560;2023-04-01T20:10:34;0.70;;;0.50;;
43696;SDS011;29301;47.620;19.560;2023-04-01T20:15:58;0.70;;;0.50;;
43696;SDS011;29301;47.620;19.560;2023-04-01T20:18:34;0.60;;;0.50;;
43696;SDS011;29301;47.620;19.560;2023-04-01T20:26:39;0.70;;;0.50;;
43696;SDS011;29301;47.620;19.560;2023-04-01T20:35:14;0.70;;;0.50;;
43696;SDS011;29301;47.620;19.560;2023-04-01T20:37:57;0.70;;;0.40;;
43696;SDS011;29301;47.620;19.560;2023-04-01T20:40:40;0.70;;;0.40;;
43696;SDS011;29301;47.620;19.560;2023-04-01T20:46:03;0.60;;;0.40;;
43696;SDS011;29301;47.620;19.560;2023-04-01T20:51:12;0.70;;;0.50;;
43696;SDS011;29301;47.620;19.560;2023-04-01T21:12:24;0.70;;;0.50;;
43696;SDS011;29301;47.620;19.560;2023-04-01T21:17:45;0.70;;;0.50;;
43696;SDS011;29301;47.620;19.560;2023-04-01T21:20:20;0.70;;;0.50;;
43696;SDS011;29301;47.620;19.560;2023-04-01T21:37:00;0.70;;;0.50;;
43696;SDS011;29301;47.620;19.560;2023-04-01T22:06:29;0.80;;;0.50;;
43696;SDS011;29301;47.620;19.560;2023-04-01T22:17:21;0.70;;;0.50;;
43696;SDS011;29301;47.620;19.560;2023-04-01T22:22:22;0.80;;;0.50;;
43696;SDS011;29301;47.620;19.560;2023-04-01T22:25:07;0.70;;;0.50;;
43696;SDS011;29301;47.620;19.560;2023-04-01T22:27:44;0.70;;;0.50;;
43696;SDS011;29301;47.620;19.560;2023-04-01T22:30:24;0.70;;;0.50;;
43696;SDS011;29301;47.620;19.560;2023-04-01T22:38:48;0.70;;;0.50;;
43696;SDS011;29301;47.620;19.560;2023-04-01T22:41:52;0.80;;;0.50;;
43696;SDS011;29301;47.620;19.560;2023-04-01T22:50:32;0.70;;;0.50;;
43696;SDS011;29301;47.620;19.560;2023-04-01T22:52:47;0.70;;;0.60;;
43696;SDS011;29301;47.620;19.560;2023-04-01T22:55:24;0.70;;;0.50;;
43696;SDS011;29301;47.620;19.560;2023-04-01T22:57:56;0.80;;;0.60;;
43696;SDS011;29301;47.620;19.560;2023-04-01T23:00:50;0.70;;;0.50;;
43696;SDS011;29301;47.620;19.560;2023-04-01T23:03:25;0.80;;;0.50;;
43696;SDS011;29301;47.620;19.560;2023-04-01T23:05:56;0.80;;;0.60;;
43696;SDS011;29301;47.620;19.560;2023-04-01T23:10:58;0.80;;;0.50;;
43696;SDS011;29301;47.620;19.560;2023-04-01T23:13:30;0.70;;;0.50;;
43696;SDS011;29301;47.620;19.560;2023-04-01T23:16:02;0.80;;;0.50;;
43696;SDS011;29301;47.620;19.560;2023-04-01T23:23:59;0.70;;;0.50;;
43696;SDS011;29301;47.620;19.560;2023-04-01T23:26:50;0.70;;;0.50;;
43696;SDS011;29301;47.620;19.560;2023-04-01T23:29:21;0.70;;;0.50;;
43696;SDS011;29301;47.620;19.560;2023-04-01T23:31:48;0.80;;;0.60;;
43696;SDS011;29301;47.620;19.560;2023-04-01T23:34:26;0.80;;;0.60;;
43696;SDS011;29301;47.620;19.560;2023-04-01T23:37:10;0.70;;;0.60;;
43696;SDS011;29301;47.620;19.560;2023-04-01T23:39:38;0.70;;;0.60;;
43696;SDS011;29301;47.620;19.560;2023-04-01T23:42:07;0.80;;;0.60;;
43696;SDS011;29301;47.620;19.560;2023-04-01T23:45:11;0.70;;;0.50;;
43696;SDS011;29301;47.620;19.560;2023-04-01T23:47:39;0.73;;;0.60;;
43696;SDS011;29301;47.620;19.560;2023-04-01T23:50:22;0.80;;;0.60;;
43696;SDS011;29301;47.620;19.560;2023-04-01T23:52:54;0.85;;;0.60;;
43696;SDS011;29301;47.620;19.560;2023-04-01T23:55:31;0.70;;;0.50;;
